sensor_id;sensor_type;location;lat;lon;timestamp;pressure;altitude;pressure_sealevel;temperature;humidity
44309;BME280;30022;55.846;37.340;2023-03-01T00:00:46;46811.72;;;-143.51;100.00
44309;BME280;30022;55.846;37.340;2023-03-01T00:03:12;46799.88;;;-143.51;100.00
44309;BME280;30022;55.846;37.340;2023-03-01T00:05:47;46801.84;;;-143.51;100.00
44309;BME280;30022;55.846;37.340;2023-03-01T00:08:13;46760.38;;;-143.51;100.00
44309;BME280;30022;55.846;37.340;2023-03-01T00:10:39;46791.97;;;-143.51;100.00
44309;BME280;30022;55.846;37.340;2023-03-01T00:13:04;46780.13;;;-143.51;100.00
44309;BME280;30022;55.846;37.340;2023-03-01T00:15:31;46809.75;;;-143.51;100.00
44309;BME280;30022;55.846;37.340;2023-03-01T00:17:56;46774.22;;;-143.51;100.00
44309;BME280;30022;55.846;37.340;2023-03-01T00:20:22;46772.22;;;-143.51;100.00
44309;BME280;30022;55.846;37.340;2023-03-01T00:22:48;46795.94;;;-143.51;100.00
44309;BME280;30022;55.846;37.340;2023-03-01T00:25:13;46778.16;;;-143.51;100.00
44309;BME280;30022;55.846;37.340;2023-03-01T00:27:39;46764.34;;;-143.51;100.00
44309;BME280;30022;55.846;37.340;2023-03-01T00:30:05;46790.00;;;-143.51;100.00
44309;BME280;30022;55.846;37.340;2023-03-01T00:32:31;46770.25;;;-143.51;100.00
44309;BME280;30022;55.846;37.340;2023-03-01T00:34:56;46748.53;;;-143.51;100.00
44309;BME280;30022;55.846;37.340;2023-03-01T00:37:23;46746.56;;;-143.51;100.00
44309;BME280;30022;55.846;37.340;2023-03-01T00:39:49;46742.59;;;-143.51;100.00
44309;BME280;30022;55.846;37.340;2023-03-01T00:42:15;46742.59;;;-143.51;100.00
44309;BME280;30022;55.846;37.340;2023-03-01T00:44:41;46762.34;;;-143.51;100.00
44309;BME280;30022;55.846;37.340;2023-03-01T00:47:07;46780.13;;;-143.51;100.00
44309;BME280;30022;55.846;37.340;2023-03-01T00:49:32;46758.41;;;-143.51;100.00
44309;BME280;30022;55.846;37.340;2023-03-01T00:51:58;46780.13;;;-143.51;100.00
44309;BME280;30022;55.846;37.340;2023-03-01T00:54:23;46760.38;;;-143.51;100.00
44309;BME280;30022;55.846;37.340;2023-03-01T00:56:49;46782.09;;;-143.51;100.00
44309;BME280;30022;55.846;37.340;2023-03-01T00:59:15;46728.78;;;-143.51;100.00
44309;BME280;30022;55.846;37.340;2023-03-01T01:01:40;46738.66;;;-143.51;100.00
44309;BME280;30022;55.846;37.340;2023-03-01T01:04:07;46742.59;;;-143.51;100.00
44309;BME280;30022;55.846;37.340;2023-03-01T01:06:34;46752.47;;;-143.51;100.00
44309;BME280;30022;55.846;37.340;2023-03-01T01:09:00;46786.06;;;-143.51;100.00
44309;BME280;30022;55.846;37.340;2023-03-01T01:11:27;46760.38;;;-143.51;100.00
44309;BME280;30022;55.846;37.340;2023-03-01T01:13:53;46764.34;;;-143.51;100.00
44309;BME280;30022;55.846;37.340;2023-03-01T01:16:19;46778.16;;;-143.51;100.00
44309;BME280;30022;55.846;37.340;2023-03-01T01:18:45;46793.97;;;-143.51;100.00
44309;BME280;30022;55.846;37.340;2023-03-01T01:21:12;46742.59;;;-143.51;100.00
44309;BME280;30022;55.846;37.340;2023-03-01T01:23:39;46772.22;;;-143.51;100.00
44309;BME280;30022;55.846;37.340;2023-03-01T01:26:06;46784.09;;;-143.51;100.00
44309;BME280;30022;55.846;37.340;2023-03-01T01:28:31;46774.22;;;-143.51;100.00
44309;BME280;30022;55.846;37.340;2023-03-01T01:30:57;46772.22;;;-143.51;100.00
44309;BME280;30022;55.846;37.340;2023-03-01T01:33:23;46756.44;;;-143.51;100.00
44309;BME280;30022;55.846;37.340;2023-03-01T01:35:48;46750.50;;;-143.51;100.00
44309;BME280;30022;55.846;37.340;2023-03-01T01:38:14;46766.31;;;-143.51;100.00
44309;BME280;30022;55.846;37.340;2023-03-01T01:40:44;46774.22;;;-143.51;100.00
44309;BME280;30022;55.846;37.340;2023-03-01T01:46:01;46778.16;;;-143.51;100.00
44309;BME280;30022;55.846;37.340;2023-03-01T01:48:28;46784.09;;;-143.51;100.00
44309;BME280;30022;55.846;37.340;2023-03-01T01:51:05;46778.16;;;-143.51;100.00
44309;BME280;30022;55.846;37.340;2023-03-01T01:53:32;46772.22;;;-143.51;100.00
44309;BME280;30022;55.846;37.340;2023-03-01T01:55:58;46791.97;;;-143.51;100.00
44309;BME280;30022;55.846;37.340;2023-03-01T01:58:26;46778.16;;;-143.51;100.00
44309;BME280;30022;55.846;37.340;2023-03-01T02:00:54;46782.09;;;-143.51;100.00
44309;BME280;30022;55.846;37.340;2023-03-01T02:03:22;46809.75;;;-143.51;100.00
44309;BME280;30022;55.846;37.340;2023-03-01T02:05:50;46766.31;;;-143.51;100.00
44309;BME280;30022;55.846;37.340;2023-03-01T02:08:19;46766.31;;;-143.51;100.00
44309;BME280;30022;55.846;37.340;2023-03-01T02:10:46;46760.38;;;-143.51;100.00
44309;BME280;30022;55.846;37.340;2023-03-01T02:13:13;46780.13;;;-143.51;100.00
44309;BME280;30022;55.846;37.340;2023-03-01T02:15:39;46791.97;;;-143.51;100.00
44309;BME280;30022;55.846;37.340;2023-03-01T02:18:05;46756.44;;;-143.51;100.00
44309;BME280;30022;55.846;37.340;2023-03-01T02:22:59;46778.16;;;-143.51;100.00
44309;BME280;30022;55.846;37.340;2023-03-01T02:27:56;46784.09;;;-143.51;100.00
44309;BME280;30022;55.846;37.340;2023-03-01T02:30:24;46782.09;;;-143.51;100.00
44309;BME280;30022;55.846;37.340;2023-03-01T02:32:50;46764.34;;;-143.51;100.00
44309;BME280;30022;55.846;37.340;2023-03-01T02:35:16;46780.13;;;-143.51;100.00
44309;BME280;30022;55.846;37.340;2023-03-01T02:37:43;46776.19;;;-143.51;100.00
44309;BME280;30022;55.846;37.340;2023-03-01T02:40:16;46776.19;;;-143.51;100.00
44309;BME280;30022;55.846;37.340;2023-03-01T02:42:53;46790.00;;;-143.51;100.00
44309;BME280;30022;55.846;37.340;2023-03-01T02:45:19;46776.19;;;-143.51;100.00
44309;BME280;30022;55.846;37.340;2023-03-01T02:47:45;46795.94;;;-143.51;100.00
44309;BME280;30022;55.846;37.340;2023-03-01T02:50:55;46762.34;;;-143.51;100.00
44309;BME280;30022;55.846;37.340;2023-03-01T02:53:08;46790.00;;;-143.51;100.00
44309;BME280;30022;55.846;37.340;2023-03-01T02:55:36;46772.22;;;-143.51;100.00
44309;BME280;30022;55.846;37.340;2023-03-01T02:58:03;46788.03;;;-143.51;100.00
44309;BME280;30022;55.846;37.340;2023-03-01T03:00:37;46772.22;;;-143.51;100.00
44309;BME280;30022;55.846;37.340;2023-03-01T03:03:15;46790.00;;;-143.51;100.00
44309;BME280;30022;55.846;37.340;2023-03-01T03:05:42;46799.88;;;-143.51;100.00
44309;BME280;30022;55.846;37.340;2023-03-01T03:08:08;46801.84;;;-143.51;100.00
44309;BME280;30022;55.846;37.340;2023-03-01T03:10:36;46784.09;;;-143.51;100.00
44309;BME280;30022;55.846;37.340;2023-03-01T03:13:07;46811.72;;;-143.51;100.00
44309;BME280;30022;55.846;37.340;2023-03-01T03:15:33;46791.97;;;-143.51;100.00
44309;BME280;30022;55.846;37.340;2023-03-01T03:18:05;46807.78;;;-143.51;100.00
44309;BME280;30022;55.846;37.340;2023-03-01T03:20:31;46786.06;;;-143.51;100.00
44309;BME280;30022;55.846;37.340;2023-03-01T03:22:57;46778.16;;;-143.51;100.00
44309;BME280;30022;55.846;37.340;2023-03-01T03:25:26;46825.56;;;-143.51;100.00
44309;BME280;30022;55.846;37.340;2023-03-01T03:27:52;46778.16;;;-143.51;100.00
44309;BME280;30022;55.846;37.340;2023-03-01T03:30:25;46791.97;;;-143.51;100.00
44309;BME280;30022;55.846;37.340;2023-03-01T03:32:51;46788.03;;;-143.51;100.00
44309;BME280;30022;55.846;37.340;2023-03-01T03:35:21;46791.97;;;-143.51;100.00
44309;BME280;30022;55.846;37.340;2023-03-01T03:37:47;46788.03;;;-143.51;100.00
44309;BME280;30022;55.846;37.340;2023-03-01T03:40:29;46845.31;;;-143.51;100.00
44309;BME280;30022;55.846;37.340;2023-03-01T03:42:55;46795.94;;;-143.51;100.00
44309;BME280;30022;55.846;37.340;2023-03-01T03:45:21;46835.44;;;-143.51;100.00
44309;BME280;30022;55.846;37.340;2023-03-01T03:47:47;46768.28;;;-143.51;100.00
44309;BME280;30022;55.846;37.340;2023-03-01T03:50:15;46803.84;;;-143.51;100.00
44309;BME280;30022;55.846;37.340;2023-03-01T03:52:41;46851.22;;;-143.51;100.00
44309;BME280;30022;55.846;37.340;2023-03-01T03:55:08;46815.69;;;-143.51;100.00
44309;BME280;30022;55.846;37.340;2023-03-01T03:57:38;46835.44;;;-143.51;100.00
44309;BME280;30022;55.846;37.340;2023-03-01T04:00:04;46803.84;;;-143.51;100.00
44309;BME280;30022;55.846;37.340;2023-03-01T04:02:42;46809.75;;;-143.51;100.00
44309;BME280;30022;55.846;37.340;2023-03-01T04:05:08;46807.78;;;-143.51;100.00
44309;BME280;30022;55.846;37.340;2023-03-01T04:07:38;46793.97;;;-143.51;100.00
44309;BME280;30022;55.846;37.340;2023-03-01T04:10:05;46815.69;;;-143.51;100.00
44309;BME280;30022;55.846;37.340;2023-03-01T04:15:36;46793.97;;;-143.51;100.00
44309;BME280;30022;55.846;37.340;2023-03-01T04:18:03;46809.75;;;-143.51;100.00
44309;BME280;30022;55.846;37.340;2023-03-01T04:20:30;46778.16;;;-143.51;100.00
44309;BME280;30022;55.846;37.340;2023-03-01T04:22:58;46801.84;;;-143.51;100.00
44309;BME280;30022;55.846;37.340;2023-03-01T04:25:23;46801.84;;;-143.51;100.00
44309;BME280;30022;55.846;37.340;2023-03-01T04:27:51;46803.84;;;-143.51;100.00
44309;BME280;30022;55.846;37.340;2023-03-01T04:30:17;46831.47;;;-143.51;100.00
44309;BME280;30022;55.846;37.340;2023-03-01T04:32:43;46811.72;;;-143.51;100.00
44309;BME280;30022;55.846;37.340;2023-03-01T04:35:08;46772.22;;;-143.51;100.00
44309;BME280;30022;55.846;37.340;2023-03-01T04:37:34;46791.97;;;-143.51;100.00
44309;BME280;30022;55.846;37.340;2023-03-01T04:40:01;46788.03;;;-143.51;100.00
44309;BME280;30022;55.846;37.340;2023-03-01T04:42:37;46793.97;;;-143.51;100.00
44309;BME280;30022;55.846;37.340;2023-03-01T04:45:03;46813.72;;;-143.51;100.00
44309;BME280;30022;55.846;37.340;2023-03-01T04:47:30;46811.72;;;-143.51;100.00
44309;BME280;30022;55.846;37.340;2023-03-01T04:49:56;46805.81;;;-143.51;100.00
44309;BME280;30022;55.846;37.340;2023-03-01T04:52:21;46839.38;;;-143.51;100.00
44309;BME280;30022;55.846;37.340;2023-03-01T04:54:48;46807.78;;;-143.51;100.00
44309;BME280;30022;55.846;37.340;2023-03-01T04:57:13;46823.59;;;-143.51;100.00
44309;BME280;30022;55.846;37.340;2023-03-01T04:59:39;46823.59;;;-143.51;100.00
44309;BME280;30022;55.846;37.340;2023-03-01T05:02:04;46801.84;;;-143.51;100.00
44309;BME280;30022;55.846;37.340;2023-03-01T05:04:30;46811.72;;;-143.51;100.00
44309;BME280;30022;55.846;37.340;2023-03-01T05:06:56;46791.97;;;-143.51;100.00
44309;BME280;30022;55.846;37.340;2023-03-01T05:09:23;46784.09;;;-143.51;100.00
44309;BME280;30022;55.846;37.340;2023-03-01T05:11:49;46799.88;;;-143.51;100.00
44309;BME280;30022;55.846;37.340;2023-03-01T05:14:16;46827.53;;;-143.51;100.00
44309;BME280;30022;55.846;37.340;2023-03-01T05:16:42;46784.09;;;-143.51;100.00
44309;BME280;30022;55.846;37.340;2023-03-01T05:19:08;46801.84;;;-143.51;100.00
44309;BME280;30022;55.846;37.340;2023-03-01T05:21:40;46799.88;;;-143.51;100.00
44309;BME280;30022;55.846;37.340;2023-03-01T05:24:26;46776.19;;;-143.51;100.00
44309;BME280;30022;55.846;37.340;2023-03-01T05:26:52;46801.84;;;-143.51;100.00
44309;BME280;30022;55.846;37.340;2023-03-01T05:29:19;46786.06;;;-143.51;100.00
44309;BME280;30022;55.846;37.340;2023-03-01T05:31:51;46772.22;;;-143.51;100.00
44309;BME280;30022;55.846;37.340;2023-03-01T05:34:17;46786.06;;;-143.51;100.00
44309;BME280;30022;55.846;37.340;2023-03-01T05:36:42;46764.34;;;-143.51;100.00
44309;BME280;30022;55.846;37.340;2023-03-01T05:39:08;46799.88;;;-143.51;100.00
44309;BME280;30022;55.846;37.340;2023-03-01T05:41:34;46790.00;;;-143.51;100.00
44309;BME280;30022;55.846;37.340;2023-03-01T05:43:59;46768.28;;;-143.51;100.00
44309;BME280;30022;55.846;37.340;2023-03-01T05:46:25;46752.47;;;-143.51;100.00
44309;BME280;30022;55.846;37.340;2023-03-01T05:48:50;46784.09;;;-143.51;100.00
44309;BME280;30022;55.846;37.340;2023-03-01T05:51:16;46780.13;;;-143.51;100.00
44309;BME280;30022;55.846;37.340;2023-03-01T05:53:42;46776.19;;;-143.51;100.00
44309;BME280;30022;55.846;37.340;2023-03-01T05:56:08;46760.38;;;-143.51;100.00
44309;BME280;30022;55.846;37.340;2023-03-01T05:58:34;46768.28;;;-143.51;100.00
44309;BME280;30022;55.846;37.340;2023-03-01T06:00:59;46760.38;;;-143.51;100.00
44309;BME280;30022;55.846;37.340;2023-03-01T06:03:25;46756.44;;;-143.51;100.00
44309;BME280;30022;55.846;37.340;2023-03-01T06:05:55;46758.41;;;-143.51;100.00
44309;BME280;30022;55.846;37.340;2023-03-01T06:08:20;46762.34;;;-143.51;100.00
44309;BME280;30022;55.846;37.340;2023-03-01T06:10:47;46784.09;;;-143.51;100.00
44309;BME280;30022;55.846;37.340;2023-03-01T06:13:13;46756.44;;;-143.51;100.00
44309;BME280;30022;55.846;37.340;2023-03-01T06:15:38;46760.38;;;-143.51;100.00
44309;BME280;30022;55.846;37.340;2023-03-01T06:18:04;46770.25;;;-143.51;100.00
44309;BME280;30022;55.846;37.340;2023-03-01T06:20:29;46784.09;;;-143.51;100.00
44309;BME280;30022;55.846;37.340;2023-03-01T06:22:55;46740.63;;;-143.51;100.00
44309;BME280;30022;55.846;37.340;2023-03-01T06:25:22;46768.28;;;-143.51;100.00
44309;BME280;30022;55.846;37.340;2023-03-01T06:27:48;46752.47;;;-143.51;100.00
44309;BME280;30022;55.846;37.340;2023-03-01T06:30:15;46774.22;;;-143.51;100.00
44309;BME280;30022;55.846;37.340;2023-03-01T06:32:41;46764.34;;;-143.51;100.00
44309;BME280;30022;55.846;37.340;2023-03-01T06:35:10;46766.31;;;-143.51;100.00
44309;BME280;30022;55.846;37.340;2023-03-01T06:37:36;46750.50;;;-143.51;100.00
44309;BME280;30022;55.846;37.340;2023-03-01T06:40:02;46756.44;;;-143.51;100.00
44309;BME280;30022;55.846;37.340;2023-03-01T06:42:36;46740.63;;;-143.51;100.00
44309;BME280;30022;55.846;37.340;2023-03-01T06:45:03;46768.28;;;-143.51;100.00
44309;BME280;30022;55.846;37.340;2023-03-01T06:47:29;46760.38;;;-143.51;100.00
44309;BME280;30022;55.846;37.340;2023-03-01T06:49:55;46766.31;;;-143.51;100.00
44309;BME280;30022;55.846;37.340;2023-03-01T06:52:21;46748.53;;;-143.51;100.00
44309;BME280;30022;55.846;37.340;2023-03-01T06:54:46;46764.34;;;-143.51;100.00
44309;BME280;30022;55.846;37.340;2023-03-01T06:57:12;46784.09;;;-143.51;100.00
44309;BME280;30022;55.846;37.340;2023-03-01T06:59:37;46766.31;;;-143.51;100.00
44309;BME280;30022;55.846;37.340;2023-03-01T07:02:03;46772.22;;;-143.51;100.00
44309;BME280;30022;55.846;37.340;2023-03-01T07:04:28;46768.28;;;-143.51;100.00
44309;BME280;30022;55.846;37.340;2023-03-01T07:06:55;46740.63;;;-143.51;100.00
44309;BME280;30022;55.846;37.340;2023-03-01T07:09:23;46788.03;;;-143.51;100.00
44309;BME280;30022;55.846;37.340;2023-03-01T07:11:49;46766.31;;;-143.51;100.00
44309;BME280;30022;55.846;37.340;2023-03-01T07:14:15;46764.34;;;-143.51;100.00
44309;BME280;30022;55.846;37.340;2023-03-01T07:16:41;46756.44;;;-143.51;100.00
44309;BME280;30022;55.846;37.340;2023-03-01T07:19:07;46778.16;;;-143.51;100.00
44309;BME280;30022;55.846;37.340;2023-03-01T07:21:32;46768.28;;;-143.51;100.00
44309;BME280;30022;55.846;37.340;2023-03-01T07:23:59;46756.44;;;-143.51;100.00
44309;BME280;30022;55.846;37.340;2023-03-01T07:26:24;46720.88;;;-143.51;100.00
44309;BME280;30022;55.846;37.340;2023-03-01T07:28:50;46752.47;;;-143.51;100.00
44309;BME280;30022;55.846;37.340;2023-03-01T07:31:16;46758.41;;;-143.51;100.00
44309;BME280;30022;55.846;37.340;2023-03-01T07:33:41;46742.59;;;-143.51;100.00
44309;BME280;30022;55.846;37.340;2023-03-01T07:36:07;46736.69;;;-143.51;100.00
44309;BME280;30022;55.846;37.340;2023-03-01T07:38:33;46742.59;;;-143.51;100.00
44309;BME280;30022;55.846;37.340;2023-03-01T07:40:59;46728.78;;;-143.51;100.00
44309;BME280;30022;55.846;37.340;2023-03-01T07:43:25;46786.06;;;-143.51;100.00
44309;BME280;30022;55.846;37.340;2023-03-01T07:45:51;46760.38;;;-143.51;100.00
44309;BME280;30022;55.846;37.340;2023-03-01T07:48:17;46766.31;;;-143.51;100.00
44309;BME280;30022;55.846;37.340;2023-03-01T07:50:43;46772.22;;;-143.51;100.00
44309;BME280;30022;55.846;37.340;2023-03-01T07:53:09;46760.38;;;-143.51;100.00
44309;BME280;30022;55.846;37.340;2023-03-01T07:55:39;46760.38;;;-143.51;100.00
44309;BME280;30022;55.846;37.340;2023-03-01T07:58:04;46746.56;;;-143.51;100.00
44309;BME280;30022;55.846;37.340;2023-03-01T08:00:30;46730.75;;;-143.51;100.00
44309;BME280;30022;55.846;37.340;2023-03-01T08:02:58;46740.63;;;-143.51;100.00
44309;BME280;30022;55.846;37.340;2023-03-01T08:05:24;46748.53;;;-143.51;100.00
44309;BME280;30022;55.846;37.340;2023-03-01T08:07:49;46732.75;;;-143.51;100.00
44309;BME280;30022;55.846;37.340;2023-03-01T08:10:15;46722.88;;;-143.51;100.00
44309;BME280;30022;55.846;37.340;2023-03-01T08:12:40;46734.72;;;-143.51;100.00
44309;BME280;30022;55.846;37.340;2023-03-01T08:15:06;46726.81;;;-143.51;100.00
44309;BME280;30022;55.846;37.340;2023-03-01T08:17:32;46732.75;;;-143.51;100.00
44309;BME280;30022;55.846;37.340;2023-03-01T08:20:04;46738.66;;;-143.51;100.00
44309;BME280;30022;55.846;37.340;2023-03-01T08:22:32;46734.72;;;-143.51;100.00
44309;BME280;30022;55.846;37.340;2023-03-01T08:24:57;46762.34;;;-143.51;100.00
44309;BME280;30022;55.846;37.340;2023-03-01T08:27:23;46742.59;;;-143.51;100.00
44309;BME280;30022;55.846;37.340;2023-03-01T08:29:49;46793.97;;;-143.51;100.00
44309;BME280;30022;55.846;37.340;2023-03-01T08:32:14;46730.75;;;-143.51;100.00
44309;BME280;30022;55.846;37.340;2023-03-01T08:34:40;46740.63;;;-143.51;100.00
44309;BME280;30022;55.846;37.340;2023-03-01T08:37:06;46711.00;;;-143.51;100.00
44309;BME280;30022;55.846;37.340;2023-03-01T08:39:37;46685.34;;;-143.51;100.00
44309;BME280;30022;55.846;37.340;2023-03-01T08:42:03;46738.66;;;-143.51;100.00
44309;BME280;30022;55.846;37.340;2023-03-01T08:44:28;46720.88;;;-143.51;100.00
44309;BME280;30022;55.846;37.340;2023-03-01T08:46:54;46716.94;;;-143.51;100.00
44309;BME280;30022;55.846;37.340;2023-03-01T08:49:20;46726.81;;;-143.51;100.00
44309;BME280;30022;55.846;37.340;2023-03-01T08:51:46;46711.00;;;-143.51;100.00
44309;BME280;30022;55.846;37.340;2023-03-01T08:54:14;46713.00;;;-143.51;100.00
44309;BME280;30022;55.846;37.340;2023-03-01T08:56:40;46728.78;;;-143.51;100.00
44309;BME280;30022;55.846;37.340;2023-03-01T08:59:06;46718.91;;;-143.51;100.00
44309;BME280;30022;55.846;37.340;2023-03-01T09:01:31;46720.88;;;-143.51;100.00
44309;BME280;30022;55.846;37.340;2023-03-01T09:03:57;46718.91;;;-143.51;100.00
44309;BME280;30022;55.846;37.340;2023-03-01T09:06:22;46722.88;;;-143.51;100.00
44309;BME280;30022;55.846;37.340;2023-03-01T09:08:49;46703.13;;;-143.51;100.00
44309;BME280;30022;55.846;37.340;2023-03-01T09:11:19;46744.59;;;-143.51;100.00
44309;BME280;30022;55.846;37.340;2023-03-01T09:13:45;46732.75;;;-143.51;100.00
44309;BME280;30022;55.846;37.340;2023-03-01T09:16:12;46716.94;;;-143.51;100.00
44309;BME280;30022;55.846;37.340;2023-03-01T09:18:38;46695.22;;;-143.51;100.00
44309;BME280;30022;55.846;37.340;2023-03-01T09:21:14;46734.72;;;-143.51;100.00
44309;BME280;30022;55.846;37.340;2023-03-01T09:23:41;46726.81;;;-143.51;100.00
44309;BME280;30022;55.846;37.340;2023-03-01T09:26:08;46718.91;;;-143.51;100.00
44309;BME280;30022;55.846;37.340;2023-03-01T09:28:34;46740.63;;;-143.51;100.00
44309;BME280;30022;55.846;37.340;2023-03-01T09:31:00;46701.13;;;-143.51;100.00
44309;BME280;30022;55.846;37.340;2023-03-01T09:33:27;46709.03;;;-143.51;100.00
44309;BME280;30022;55.846;37.340;2023-03-01T09:36:00;46726.81;;;-143.51;100.00
44309;BME280;30022;55.846;37.340;2023-03-01T09:38:26;46728.78;;;-143.51;100.00
44309;BME280;30022;55.846;37.340;2023-03-01T09:40:52;46736.69;;;-143.51;100.00
44309;BME280;30022;55.846;37.340;2023-03-01T09:45:49;46722.88;;;-143.51;100.00
44309;BME280;30022;55.846;37.340;2023-03-01T09:48:22;46714.97;;;-143.51;100.00
44309;BME280;30022;55.846;37.340;2023-03-01T09:50:48;46703.13;;;-143.51;100.00
44309;BME280;30022;55.846;37.340;2023-03-01T09:53:17;46740.63;;;-143.51;100.00
44309;BME280;30022;55.846;37.340;2023-03-01T09:56:02;46718.91;;;-143.51;100.00
44309;BME280;30022;55.846;37.340;2023-03-01T10:01:10;46699.16;;;-143.51;100.00
44309;BME280;30022;55.846;37.340;2023-03-01T10:03:43;46701.13;;;-143.51;100.00
44309;BME280;30022;55.846;37.340;2023-03-01T10:06:11;46707.06;;;-143.51;100.00
44309;BME280;30022;55.846;37.340;2023-03-01T10:08:58;46718.91;;;-143.51;100.00
44309;BME280;30022;55.846;37.340;2023-03-01T10:11:32;46713.00;;;-143.51;100.00
44309;BME280;30022;55.846;37.340;2023-03-01T10:16:50;46714.97;;;-143.51;100.00
44309;BME280;30022;55.846;37.340;2023-03-01T10:19:21;46699.16;;;-143.51;100.00
44309;BME280;30022;55.846;37.340;2023-03-01T10:21:48;46691.25;;;-143.51;100.00
44309;BME280;30022;55.846;37.340;2023-03-01T10:24:18;46716.94;;;-143.51;100.00
44309;BME280;30022;55.846;37.340;2023-03-01T10:26:56;46711.00;;;-143.51;100.00
44309;BME280;30022;55.846;37.340;2023-03-01T10:29:34;46693.25;;;-143.51;100.00
44309;BME280;30022;55.846;37.340;2023-03-01T10:32:03;46677.44;;;-143.51;100.00
44309;BME280;30022;55.846;37.340;2023-03-01T10:34:31;46701.13;;;-143.51;100.00
44309;BME280;30022;55.846;37.340;2023-03-01T10:36:58;46693.25;;;-143.51;100.00
44309;BME280;30022;55.846;37.340;2023-03-01T10:39:26;46663.63;;;-143.51;100.00
44309;BME280;30022;55.846;37.340;2023-03-01T10:41:54;46675.47;;;-143.51;100.00
44309;BME280;30022;55.846;37.340;2023-03-01T10:44:40;46679.41;;;-143.51;100.00
44309;BME280;30022;55.846;37.340;2023-03-01T10:49:59;46675.47;;;-143.51;100.00
44309;BME280;30022;55.846;37.340;2023-03-01T10:52:29;46681.38;;;-143.51;100.00
44309;BME280;30022;55.846;37.340;2023-03-01T10:55:03;46705.09;;;-143.51;100.00
44309;BME280;30022;55.846;37.340;2023-03-01T10:57:37;46665.59;;;-143.51;100.00
44309;BME280;30022;55.846;37.340;2023-03-01T11:02:38;46683.38;;;-143.51;100.00
44309;BME280;30022;55.846;37.340;2023-03-01T11:08:00;46691.25;;;-143.51;100.00
44309;BME280;30022;55.846;37.340;2023-03-01T11:12:50;46673.50;;;-143.51;100.00
44309;BME280;30022;55.846;37.340;2023-03-01T11:15:49;46677.44;;;-143.51;99.06
44309;BME280;30022;55.846;37.340;2023-03-01T11:18:19;46673.50;;;-143.51;100.00
44309;BME280;30022;55.846;37.340;2023-03-01T11:20:44;46665.59;;;-143.51;99.07
44309;BME280;30022;55.846;37.340;2023-03-01T11:23:11;46687.31;;;-143.51;98.56
44309;BME280;30022;55.846;37.340;2023-03-01T11:25:47;46675.47;;;-143.51;98.23
44309;BME280;30022;55.846;37.340;2023-03-01T11:28:16;46647.81;;;-143.51;97.29
44309;BME280;30022;55.846;37.340;2023-03-01T11:31:00;46659.66;;;-143.51;99.05
44309;BME280;30022;55.846;37.340;2023-03-01T11:36:13;46669.53;;;-143.51;96.36
44309;BME280;30022;55.846;37.340;2023-03-01T11:38:41;46661.63;;;-143.51;95.35
44309;BME280;30022;55.846;37.340;2023-03-01T11:41:10;46677.44;;;-143.51;94.64
44309;BME280;30022;55.846;37.340;2023-03-01T11:56:31;46665.59;;;-143.51;95.27
44309;BME280;30022;55.846;37.340;2023-03-01T12:01:40;46657.69;;;-143.51;94.19
44309;BME280;30022;55.846;37.340;2023-03-01T12:07:00;46677.44;;;-143.51;91.74
44309;BME280;30022;55.846;37.340;2023-03-01T12:09:54;46669.53;;;-143.51;92.92
44309;BME280;30022;55.846;37.340;2023-03-01T12:17:50;46667.56;;;-143.51;94.71
44309;BME280;30022;55.846;37.340;2023-03-01T12:25:39;46647.81;;;-143.51;90.77
44309;BME280;30022;55.846;37.340;2023-03-01T12:33:22;46667.56;;;-143.51;95.85
44309;BME280;30022;55.846;37.340;2023-03-01T12:38:37;46643.88;;;-143.51;94.94
44309;BME280;30022;55.846;37.340;2023-03-01T12:51:01;46689.28;;;-143.51;91.65
44309;BME280;30022;55.846;37.340;2023-03-01T12:53:34;46671.50;;;-143.51;92.83
44309;BME280;30022;55.846;37.340;2023-03-01T12:56:05;46677.44;;;-143.51;93.10
44309;BME280;30022;55.846;37.340;2023-03-01T13:03:57;46663.63;;;-143.51;93.68
44309;BME280;30022;55.846;37.340;2023-03-01T13:06:49;46667.56;;;-143.51;92.05
44309;BME280;30022;55.846;37.340;2023-03-01T13:11:48;46637.94;;;-143.51;92.70
44309;BME280;30022;55.846;37.340;2023-03-01T13:16:46;46653.75;;;-143.51;94.14
44309;BME280;30022;55.846;37.340;2023-03-01T13:21:43;46663.63;;;-143.51;96.83
44309;BME280;30022;55.846;37.340;2023-03-01T13:24:26;46673.50;;;-143.51;97.13
44309;BME280;30022;55.846;37.340;2023-03-01T13:29:43;46661.63;;;-143.51;96.39
44309;BME280;30022;55.846;37.340;2023-03-01T13:38:02;46659.66;;;-143.51;99.40
44309;BME280;30022;55.846;37.340;2023-03-01T13:43:25;46663.63;;;-143.51;97.83
44309;BME280;30022;55.846;37.340;2023-03-01T13:45:52;46677.44;;;-143.51;99.27
44309;BME280;30022;55.846;37.340;2023-03-01T13:48:21;46669.53;;;-143.51;100.00
44309;BME280;30022;55.846;37.340;2023-03-01T13:50:51;46687.31;;;-143.51;99.48
44309;BME280;30022;55.846;37.340;2023-03-01T13:53:19;46663.63;;;-143.51;97.17
44309;BME280;30022;55.846;37.340;2023-03-01T13:55:55;46705.09;;;-143.51;97.81
44309;BME280;30022;55.846;37.340;2023-03-01T13:58:23;46681.38;;;-143.51;97.98
44309;BME280;30022;55.846;37.340;2023-03-01T14:01:06;46671.50;;;-143.51;100.00
44309;BME280;30022;55.846;37.340;2023-03-01T14:03:33;46665.59;;;-143.51;100.00
44309;BME280;30022;55.846;37.340;2023-03-01T14:08:37;46687.31;;;-143.51;100.00
44309;BME280;30022;55.846;37.340;2023-03-01T14:21:07;46677.44;;;-143.51;100.00